Flight Track Log - Related Links

Times and Time Zones

All times are in EDT time to prevent confusion due to time zone crossing. See the CPT7773 flight status page for this flight to view local times or setup timezone preferences in your user account.

Time Position Orientation Groundspeed Altitude Reporting Facility
EDT Latitude Longitude Course Direction KTS MPH feet Rate Location/Type
Fri 07:46:34 PM 44.5217 -108.9686 113° Southeast 126 145 6,400  Level Salt Lake Center
Fri 07:47:35 PM 44.5053 -108.9153 113° Southeast 134 154 7,600 1,171 Climbing Salt Lake Center
Fri 07:48:37 PM 44.4936 -108.8694 110° East 132 152 8,800 1,161 Climbing Salt Lake Center
Fri 07:49:39 PM 44.4778 -108.8189 114° Southeast 130 150 10,000 1,016 Climbing Salt Lake Center
Fri 07:50:41 PM 44.4636 -108.7731 113° Southeast 130 150 10,900 488 Climbing Salt Lake Center
Fri 07:51:42 PM 44.4497 -108.7111 107° East 141 162 11,000 49 Climbing Salt Lake Center
Fri 07:52:44 PM 44.4247 -108.6544 122° Southeast 161 185 11,000  Level Salt Lake Center
Fri 07:53:46 PM 44.3847 -108.6006 136° Southeast 173 199 11,000 -48 Level Salt Lake Center
Fri 07:54:48 PM 44.3533 -108.5514 132° Southeast 176 203 10,900 -49 Descending Salt Lake Center
Fri 07:55:49 PM 44.3211 -108.5028 133° Southeast 177 204 10,900 49 Level Salt Lake Center
Fri 07:56:51 PM 44.2847 -108.4447 131° Southeast 178 205 11,000 48 Climbing Salt Lake Center
Fri 07:57:53 PM 44.2536 -108.3956 131° Southeast 178 205 11,000  Level Salt Lake Center
Fri 07:58:55 PM 44.2169 -108.3389 132° Southeast 177 204 11,000  Level Salt Lake Center
Fri 07:59:56 PM 44.1847 -108.2900 133° Southeast 178 205 11,000  Level Salt Lake Center
Fri 08:00:58 PM 44.1467 -108.2325 133° Southeast 179 206 11,000  Level Salt Lake Center
Fri 08:01:59 PM 44.1142 -108.1831 132° Southeast 181 208 11,000  Level Salt Lake Center
Fri 08:03:01 PM 44.0772 -108.1275 133° Southeast 178 205 11,000  Level Salt Lake Center
Fri 08:04:03 PM 44.0464 -108.0792 132° Southeast 176 203 11,000  Level Salt Lake Center
Fri 08:05:04 PM 44.0161 -108.0328 132° Southeast 174 200 11,000  Level Salt Lake Center
Fri 08:06:06 PM 43.9803 -107.9789 133° Southeast 171 197 11,000  Level Salt Lake Center
Fri 08:07:08 PM 43.9500 -107.9311 131° Southeast 172 198 11,000  Level Salt Lake Center
Fri 08:08:09 PM 43.9211 -107.8703 123° Southeast 170 196 11,000 -49 Level Salt Lake Center
Fri 08:09:11 PM 43.8950 -107.8197 126° Southeast 169 194 10,900  Descending Salt Lake Center
Fri 08:10:13 PM 43.8647 -107.7611 126° Southeast 168 193 11,000 49 Climbing Salt Lake Center
Fri 08:11:14 PM 43.8389 -107.7117 126° Southeast 168 193 11,000  Level Salt Lake Center
Fri 08:12:16 PM 43.8089 -107.6544 126° Southeast 166 191 11,000 48 Level Salt Lake Center
Fri 08:13:18 PM 43.7833 -107.6033 125° Southeast 167 192 11,100  Climbing Salt Lake Center
Fri 08:14:19 PM 43.7567 -107.5519 126° Southeast 169 194 11,000 -49 Descending Salt Lake Center
Fri 08:15:21 PM 43.7264 -107.4922 125° Southeast 170 196 11,000  Level Salt Lake Center
Fri 08:16:23 PM 43.6992 -107.4411 126° Southeast 172 198 11,000 48 Level Salt Lake Center
Fri 08:17:25 PM 43.6686 -107.3806 125° Southeast 172 198 11,100  Climbing Salt Lake Center
Fri 08:18:26 PM 43.6419 -107.3289 125° Southeast 172 198 11,000 -49 Descending Salt Lake Center
Fri 08:19:28 PM 43.6128 -107.2692 124° Southeast 171 197 11,000 48 Level Salt Lake Center
Fri 08:20:30 PM 43.5858 -107.2203 127° Southeast 168 193 11,100 49 Climbing Salt Lake Center
Fri 08:21:31 PM 43.5583 -107.1700 127° Southeast 170 196 11,100 -49 Level Salt Lake Center
Fri 08:22:33 PM 43.5272 -107.1094 125° Southeast 172 198 11,000 -76 Descending Salt Lake Center
Fri 08:22:50 PM 43.5200 -107.0897 117° Southeast 172 198 11,000  Level Denver Center
Fri 08:23:52 PM 43.4928 -107.0383 126° Southeast 173 199 11,000  Level Denver Center
Fri 08:24:53 PM 43.4622 -106.9794 126° Southeast 170 196 11,000  Level Denver Center
Fri 08:25:55 PM 43.4358 -106.9289 126° Southeast 170 196 11,000  Level Denver Center
Fri 08:26:57 PM 43.4061 -106.8719 126° Southeast 170 196 11,000  Level Denver Center
Fri 08:27:59 PM 43.3792 -106.8219 127° Southeast 170 196 11,000 -290 Level Denver Center
Fri 08:29:01 PM 43.3394 -106.7731 138° Southeast 174 200 10,400 -435 Descending Denver Center
Fri 08:30:03 PM 43.2917 -106.7461 158° South 189 217 10,100 -341 Descending Denver Center
Fri 08:31:04 PM 43.2483 -106.7097 149° Southeast 168 193 9,700 -537 Descending Denver Center
Fri 08:32:06 PM 43.2067 -106.6769 150° Southeast 172 198 9,000 -726 Descending Denver Center
Fri 08:33:08 PM 43.1575 -106.6503 158° South 182 209 8,200 -677 Descending Denver Center
Fri 08:34:10 PM 43.0975 -106.6214 161° South 193 222 7,600 -341 Descending Denver Center
Fri 08:35:11 PM 43.0422 -106.5925 159° South 195 224 7,500 -98 Descending Denver Center
Fri 08:37:00 PM 42.9760 -106.5292 145° Southeast  Level Estimated
Fri 08:44:00 PM 42.9080 -106.4644 145° Southeast  Level Estimated
Fri 08:45:00 PM 42.9080 -106.4644 90° East  Level Estimated
Fri 08:46:00 PM 42.9080 -106.4644 90° East  Level Estimated
Fri 08:47:00 PM 42.9080 -106.4644 90° East  Level Estimated
Fri 08:48:00 PM 42.9080 -106.4644 90° East  Level Estimated

Login

Don't have an account? Register now (free) for customized features, flight alerts, and more!